sensor_id;sensor_type;location;lat;lon;timestamp;temperature;humidity
72814;DHT22;60945;48.516;-2.768;2023-02-28T00:01:22;7.30;55.90
72814;DHT22;60945;48.516;-2.768;2023-02-28T00:03:48;7.20;56.00
72814;DHT22;60945;48.516;-2.768;2023-02-28T00:06:14;7.20;56.00
72814;DHT22;60945;48.516;-2.768;2023-02-28T00:08:40;7.20;55.80
72814;DHT22;60945;48.516;-2.768;2023-02-28T00:11:08;7.10;55.60
72814;DHT22;60945;48.516;-2.768;2023-02-28T00:13:36;7.10;55.80
72814;DHT22;60945;48.516;-2.768;2023-02-28T00:16:11;6.90;56.00
72814;DHT22;60945;48.516;-2.768;2023-02-28T00:18:39;7.00;56.00
72814;DHT22;60945;48.516;-2.768;2023-02-28T00:21:05;7.10;56.30
72814;DHT22;60945;48.516;-2.768;2023-02-28T00:23:34;7.20;55.90
72814;DHT22;60945;48.516;-2.768;2023-02-28T00:26:00;7.20;55.30
72814;DHT22;60945;48.516;-2.768;2023-02-28T00:28:26;7.00;55.20
72814;DHT22;60945;48.516;-2.768;2023-02-28T00:30:52;7.00;55.10
72814;DHT22;60945;48.516;-2.768;2023-02-28T00:33:19;6.90;55.10
72814;DHT22;60945;48.516;-2.768;2023-02-28T00:35:45;7.00;54.90
72814;DHT22;60945;48.516;-2.768;2023-02-28T00:38:12;7.00;55.00
72814;DHT22;60945;48.516;-2.768;2023-02-28T00:40:38;7.00;54.70
72814;DHT22;60945;48.516;-2.768;2023-02-28T00:43:04;7.10;54.90
72814;DHT22;60945;48.516;-2.768;2023-02-28T00:45:30;7.00;54.90
72814;DHT22;60945;48.516;-2.768;2023-02-28T00:47:55;6.90;55.00
72814;DHT22;60945;48.516;-2.768;2023-02-28T00:50:21;7.00;54.90
72814;DHT22;60945;48.516;-2.768;2023-02-28T00:52:47;7.00;54.80
72814;DHT22;60945;48.516;-2.768;2023-02-28T00:55:13;7.00;54.80
72814;DHT22;60945;48.516;-2.768;2023-02-28T00:57:39;7.00;54.80
72814;DHT22;60945;48.516;-2.768;2023-02-28T01:00:06;6.90;55.10
72814;DHT22;60945;48.516;-2.768;2023-02-28T01:02:32;7.00;55.20
72814;DHT22;60945;48.516;-2.768;2023-02-28T01:04:58;6.80;55.50
72814;DHT22;60945;48.516;-2.768;2023-02-28T01:07:24;6.80;55.70
72814;DHT22;60945;48.516;-2.768;2023-02-28T01:09:49;6.90;55.50
72814;DHT22;60945;48.516;-2.768;2023-02-28T01:12:15;7.00;55.40
72814;DHT22;60945;48.516;-2.768;2023-02-28T01:14:42;6.90;55.60
72814;DHT22;60945;48.516;-2.768;2023-02-28T01:17:07;6.80;56.00
72814;DHT22;60945;48.516;-2.768;2023-02-28T01:19:33;6.80;56.00
72814;DHT22;60945;48.516;-2.768;2023-02-28T01:22:03;6.90;55.80
72814;DHT22;60945;48.516;-2.768;2023-02-28T01:24:29;6.90;55.80
72814;DHT22;60945;48.516;-2.768;2023-02-28T01:26:54;6.80;55.90
72814;DHT22;60945;48.516;-2.768;2023-02-28T01:29:20;6.70;56.20
72814;DHT22;60945;48.516;-2.768;2023-02-28T01:31:48;6.70;56.30
72814;DHT22;60945;48.516;-2.768;2023-02-28T01:34:14;6.70;56.60
72814;DHT22;60945;48.516;-2.768;2023-02-28T01:36:39;6.80;56.50
72814;DHT22;60945;48.516;-2.768;2023-02-28T01:39:05;6.90;56.30
72814;DHT22;60945;48.516;-2.768;2023-02-28T01:41:33;7.00;56.00
72814;DHT22;60945;48.516;-2.768;2023-02-28T01:44:06;7.20;55.80
72814;DHT22;60945;48.516;-2.768;2023-02-28T01:46:34;7.30;55.60
72814;DHT22;60945;48.516;-2.768;2023-02-28T01:49:05;7.20;55.60
72814;DHT22;60945;48.516;-2.768;2023-02-28T01:51:52;7.30;55.60
72814;DHT22;60945;48.516;-2.768;2023-02-28T01:54:27;7.20;55.60
72814;DHT22;60945;48.516;-2.768;2023-02-28T01:56:58;7.00;56.30
72814;DHT22;60945;48.516;-2.768;2023-02-28T01:59:30;6.80;56.90
72814;DHT22;60945;48.516;-2.768;2023-02-28T02:01:56;6.80;56.80
72814;DHT22;60945;48.516;-2.768;2023-02-28T02:04:24;6.70;57.20
72814;DHT22;60945;48.516;-2.768;2023-02-28T02:06:52;6.50;57.70
72814;DHT22;60945;48.516;-2.768;2023-02-28T02:09:18;6.50;58.00
72814;DHT22;60945;48.516;-2.768;2023-02-28T02:11:44;6.50;57.90
72814;DHT22;60945;48.516;-2.768;2023-02-28T02:34:56;7.00;56.40
72814;DHT22;60945;48.516;-2.768;2023-02-28T02:37:31;7.00;56.10
72814;DHT22;60945;48.516;-2.768;2023-02-28T02:40:21;7.10;55.80
72814;DHT22;60945;48.516;-2.768;2023-02-28T02:43:06;7.20;55.60
72814;DHT22;60945;48.516;-2.768;2023-02-28T02:46:10;7.10;55.30
72814;DHT22;60945;48.516;-2.768;2023-02-28T02:48:30;7.20;55.50
72814;DHT22;60945;48.516;-2.768;2023-02-28T02:50:59;7.30;55.20
72814;DHT22;60945;48.516;-2.768;2023-02-28T02:53:32;7.40;54.70
72814;DHT22;60945;48.516;-2.768;2023-02-28T02:56:00;7.40;54.40
72814;DHT22;60945;48.516;-2.768;2023-02-28T02:58:30;7.30;54.50
72814;DHT22;60945;48.516;-2.768;2023-02-28T03:01:00;7.30;54.10
72814;DHT22;60945;48.516;-2.768;2023-02-28T03:03:27;7.30;54.20
72814;DHT22;60945;48.516;-2.768;2023-02-28T03:05:58;7.10;54.50
72814;DHT22;60945;48.516;-2.768;2023-02-28T03:08:24;7.20;54.00
72814;DHT22;60945;48.516;-2.768;2023-02-28T03:10:51;7.20;53.60
72814;DHT22;60945;48.516;-2.768;2023-02-28T03:13:47;7.20;53.10
72814;DHT22;60945;48.516;-2.768;2023-02-28T03:22:13;7.20;52.80
72814;DHT22;60945;48.516;-2.768;2023-02-28T03:28:04;7.30;52.80
72814;DHT22;60945;48.516;-2.768;2023-02-28T03:34:17;7.30;52.20
72814;DHT22;60945;48.516;-2.768;2023-02-28T03:36:27;7.20;52.30
72814;DHT22;60945;48.516;-2.768;2023-02-28T03:39:01;7.30;52.20
72814;DHT22;60945;48.516;-2.768;2023-02-28T03:41:55;7.50;52.00
72814;DHT22;60945;48.516;-2.768;2023-02-28T03:44:25;7.40;51.60
72814;DHT22;60945;48.516;-2.768;2023-02-28T03:46:58;7.40;51.70
72814;DHT22;60945;48.516;-2.768;2023-02-28T03:49:36;7.30;52.00
72814;DHT22;60945;48.516;-2.768;2023-02-28T03:52:03;7.40;51.70
72814;DHT22;60945;48.516;-2.768;2023-02-28T03:54:35;7.40;52.00
72814;DHT22;60945;48.516;-2.768;2023-02-28T03:57:26;7.40;51.70
72814;DHT22;60945;48.516;-2.768;2023-02-28T03:59:59;7.60;51.40
72814;DHT22;60945;48.516;-2.768;2023-02-28T04:02:25;7.60;51.00
72814;DHT22;60945;48.516;-2.768;2023-02-28T04:04:51;7.40;51.60
72814;DHT22;60945;48.516;-2.768;2023-02-28T04:07:17;7.30;51.80
72814;DHT22;60945;48.516;-2.768;2023-02-28T04:09:43;7.30;52.00
72814;DHT22;60945;48.516;-2.768;2023-02-28T04:12:09;7.20;52.20
72814;DHT22;60945;48.516;-2.768;2023-02-28T04:14:35;7.00;52.50
72814;DHT22;60945;48.516;-2.768;2023-02-28T04:17:00;7.30;52.40
72814;DHT22;60945;48.516;-2.768;2023-02-28T04:19:26;7.30;51.80
72814;DHT22;60945;48.516;-2.768;2023-02-28T04:21:53;7.40;51.60
72814;DHT22;60945;48.516;-2.768;2023-02-28T04:24:24;7.40;51.40
72814;DHT22;60945;48.516;-2.768;2023-02-28T04:26:52;7.40;51.40
72814;DHT22;60945;48.516;-2.768;2023-02-28T04:29:23;7.30;51.60
72814;DHT22;60945;48.516;-2.768;2023-02-28T04:31:49;7.40;51.50
72814;DHT22;60945;48.516;-2.768;2023-02-28T04:34:15;7.40;51.60
72814;DHT22;60945;48.516;-2.768;2023-02-28T04:36:41;7.40;51.70
72814;DHT22;60945;48.516;-2.768;2023-02-28T04:39:07;7.40;51.90
72814;DHT22;60945;48.516;-2.768;2023-02-28T04:41:35;7.40;51.80
72814;DHT22;60945;48.516;-2.768;2023-02-28T04:44:01;7.40;52.00
72814;DHT22;60945;48.516;-2.768;2023-02-28T04:46:27;7.60;52.10
72814;DHT22;60945;48.516;-2.768;2023-02-28T04:48:53;7.50;51.90
72814;DHT22;60945;48.516;-2.768;2023-02-28T04:51:19;7.30;52.70
72814;DHT22;60945;48.516;-2.768;2023-02-28T04:53:46;7.40;52.60
72814;DHT22;60945;48.516;-2.768;2023-02-28T04:56:14;7.30;52.90
72814;DHT22;60945;48.516;-2.768;2023-02-28T04:58:40;7.30;52.90
72814;DHT22;60945;48.516;-2.768;2023-02-28T05:01:24;7.40;52.80
72814;DHT22;60945;48.516;-2.768;2023-02-28T05:03:50;7.50;52.60
72814;DHT22;60945;48.516;-2.768;2023-02-28T05:06:16;7.30;53.20
72814;DHT22;60945;48.516;-2.768;2023-02-28T05:08:42;7.40;53.00
72814;DHT22;60945;48.516;-2.768;2023-02-28T05:11:20;7.30;53.10
72814;DHT22;60945;48.516;-2.768;2023-02-28T05:13:46;7.50;52.70
72814;DHT22;60945;48.516;-2.768;2023-02-28T05:16:13;7.50;52.50
72814;DHT22;60945;48.516;-2.768;2023-02-28T05:18:39;7.40;52.60
72814;DHT22;60945;48.516;-2.768;2023-02-28T05:21:23;7.30;52.80
72814;DHT22;60945;48.516;-2.768;2023-02-28T05:23:52;7.20;53.00
72814;DHT22;60945;48.516;-2.768;2023-02-28T05:26:18;7.10;53.30
72814;DHT22;60945;48.516;-2.768;2023-02-28T05:28:43;7.20;52.80
72814;DHT22;60945;48.516;-2.768;2023-02-28T05:31:12;7.30;52.60
72814;DHT22;60945;48.516;-2.768;2023-02-28T05:33:38;7.30;52.50
72814;DHT22;60945;48.516;-2.768;2023-02-28T05:36:05;7.30;52.40
72814;DHT22;60945;48.516;-2.768;2023-02-28T05:38:31;7.40;51.90
72814;DHT22;60945;48.516;-2.768;2023-02-28T05:41:00;7.40;51.70
72814;DHT22;60945;48.516;-2.768;2023-02-28T05:43:25;7.20;52.00
72814;DHT22;60945;48.516;-2.768;2023-02-28T05:45:51;7.20;52.10
72814;DHT22;60945;48.516;-2.768;2023-02-28T05:48:17;7.00;52.40
72814;DHT22;60945;48.516;-2.768;2023-02-28T05:50:43;7.00;52.60
72814;DHT22;60945;48.516;-2.768;2023-02-28T05:53:11;7.20;52.40
72814;DHT22;60945;48.516;-2.768;2023-02-28T05:55:37;7.20;52.10
72814;DHT22;60945;48.516;-2.768;2023-02-28T05:58:03;7.10;52.30
72814;DHT22;60945;48.516;-2.768;2023-02-28T06:00:29;7.30;52.40
72814;DHT22;60945;48.516;-2.768;2023-02-28T06:02:54;7.50;51.80
72814;DHT22;60945;48.516;-2.768;2023-02-28T06:05:23;7.50;51.40
72814;DHT22;60945;48.516;-2.768;2023-02-28T06:07:49;7.30;51.40
72814;DHT22;60945;48.516;-2.768;2023-02-28T06:10:15;7.30;51.60
72814;DHT22;60945;48.516;-2.768;2023-02-28T06:12:41;7.20;51.30
72814;DHT22;60945;48.516;-2.768;2023-02-28T06:15:11;7.20;51.70
72814;DHT22;60945;48.516;-2.768;2023-02-28T06:17:37;7.20;51.20
72814;DHT22;60945;48.516;-2.768;2023-02-28T06:20:06;7.20;50.70
72814;DHT22;60945;48.516;-2.768;2023-02-28T06:22:32;7.00;50.70
72814;DHT22;60945;48.516;-2.768;2023-02-28T06:24:58;6.70;50.80
72814;DHT22;60945;48.516;-2.768;2023-02-28T06:27:23;6.80;51.30
72814;DHT22;60945;48.516;-2.768;2023-02-28T06:29:53;6.80;50.80
72814;DHT22;60945;48.516;-2.768;2023-02-28T06:32:18;6.70;51.10
72814;DHT22;60945;48.516;-2.768;2023-02-28T06:34:45;6.60;51.50
72814;DHT22;60945;48.516;-2.768;2023-02-28T06:37:10;6.50;51.60
72814;DHT22;60945;48.516;-2.768;2023-02-28T06:39:36;6.30;51.90
72814;DHT22;60945;48.516;-2.768;2023-02-28T06:42:02;6.40;52.00
72814;DHT22;60945;48.516;-2.768;2023-02-28T06:44:27;6.30;52.10
72814;DHT22;60945;48.516;-2.768;2023-02-28T06:47:00;6.40;52.20
72814;DHT22;60945;48.516;-2.768;2023-02-28T06:49:28;6.50;51.90
72814;DHT22;60945;48.516;-2.768;2023-02-28T06:51:54;6.80;51.30
72814;DHT22;60945;48.516;-2.768;2023-02-28T06:54:19;6.90;50.60
72814;DHT22;60945;48.516;-2.768;2023-02-28T06:56:45;7.00;50.30
72814;DHT22;60945;48.516;-2.768;2023-02-28T06:59:12;7.20;49.80
72814;DHT22;60945;48.516;-2.768;2023-02-28T07:01:38;7.40;49.40
72814;DHT22;60945;48.516;-2.768;2023-02-28T07:04:05;7.40;49.30
72814;DHT22;60945;48.516;-2.768;2023-02-28T07:06:31;7.40;49.00
72814;DHT22;60945;48.516;-2.768;2023-02-28T07:08:57;7.30;48.60
72814;DHT22;60945;48.516;-2.768;2023-02-28T07:11:24;7.10;49.10
72814;DHT22;60945;48.516;-2.768;2023-02-28T07:13:54;7.10;49.00
72814;DHT22;60945;48.516;-2.768;2023-02-28T07:16:21;7.20;49.20
72814;DHT22;60945;48.516;-2.768;2023-02-28T07:18:47;7.40;48.70
72814;DHT22;60945;48.516;-2.768;2023-02-28T07:21:13;7.60;48.20
72814;DHT22;60945;48.516;-2.768;2023-02-28T07:23:40;7.40;48.40
72814;DHT22;60945;48.516;-2.768;2023-02-28T07:26:09;7.60;48.40
72814;DHT22;60945;48.516;-2.768;2023-02-28T07:28:36;7.50;48.60
72814;DHT22;60945;48.516;-2.768;2023-02-28T07:31:04;7.50;48.40
72814;DHT22;60945;48.516;-2.768;2023-02-28T07:33:30;7.70;47.90
72814;DHT22;60945;48.516;-2.768;2023-02-28T07:36:08;7.60;48.10
72814;DHT22;60945;48.516;-2.768;2023-02-28T07:38:35;7.50;48.40
72814;DHT22;60945;48.516;-2.768;2023-02-28T07:41:01;7.60;48.10
72814;DHT22;60945;48.516;-2.768;2023-02-28T07:43:30;7.60;48.20
72814;DHT22;60945;48.516;-2.768;2023-02-28T07:46:00;7.60;48.30
72814;DHT22;60945;48.516;-2.768;2023-02-28T07:48:26;7.60;48.30
72814;DHT22;60945;48.516;-2.768;2023-02-28T07:50:58;7.60;47.90
72814;DHT22;60945;48.516;-2.768;2023-02-28T07:53:24;7.80;48.10
72814;DHT22;60945;48.516;-2.768;2023-02-28T07:55:50;8.10;47.20
72814;DHT22;60945;48.516;-2.768;2023-02-28T07:58:19;8.50;46.50
72814;DHT22;60945;48.516;-2.768;2023-02-28T08:00:44;8.70;46.20
72814;DHT22;60945;48.516;-2.768;2023-02-28T08:03:13;9.20;44.80
72814;DHT22;60945;48.516;-2.768;2023-02-28T08:05:39;9.10;44.70
72814;DHT22;60945;48.516;-2.768;2023-02-28T08:08:06;9.30;44.70
72814;DHT22;60945;48.516;-2.768;2023-02-28T08:10:33;9.40;44.50
72814;DHT22;60945;48.516;-2.768;2023-02-28T08:12:58;9.40;44.50
72814;DHT22;60945;48.516;-2.768;2023-02-28T08:15:24;9.50;44.30
72814;DHT22;60945;48.516;-2.768;2023-02-28T08:17:50;9.50;44.60
72814;DHT22;60945;48.516;-2.768;2023-02-28T08:20:19;9.70;44.00
72814;DHT22;60945;48.516;-2.768;2023-02-28T08:22:45;10.00;43.90
72814;DHT22;60945;48.516;-2.768;2023-02-28T08:25:10;10.30;43.20
72814;DHT22;60945;48.516;-2.768;2023-02-28T08:27:36;10.30;42.60
72814;DHT22;60945;48.516;-2.768;2023-02-28T08:30:02;10.20;43.10
72814;DHT22;60945;48.516;-2.768;2023-02-28T08:32:28;10.50;42.40
72814;DHT22;60945;48.516;-2.768;2023-02-28T08:34:54;10.20;43.00
72814;DHT22;60945;48.516;-2.768;2023-02-28T08:37:22;10.40;42.80
72814;DHT22;60945;48.516;-2.768;2023-02-28T08:39:48;10.40;42.50
72814;DHT22;60945;48.516;-2.768;2023-02-28T08:42:13;10.70;42.20
72814;DHT22;60945;48.516;-2.768;2023-02-28T08:44:39;10.90;41.60
72814;DHT22;60945;48.516;-2.768;2023-02-28T08:47:05;11.10;41.30
72814;DHT22;60945;48.516;-2.768;2023-02-28T08:49:32;11.30;41.30
72814;DHT22;60945;48.516;-2.768;2023-02-28T08:51:57;11.60;40.90
72814;DHT22;60945;48.516;-2.768;2023-02-28T08:54:24;11.60;40.50
72814;DHT22;60945;48.516;-2.768;2023-02-28T08:56:49;11.60;40.80
72814;DHT22;60945;48.516;-2.768;2023-02-28T08:59:15;12.10;40.30
72814;DHT22;60945;48.516;-2.768;2023-02-28T09:01:41;13.00;38.60
72814;DHT22;60945;48.516;-2.768;2023-02-28T09:04:09;12.90;38.20
72814;DHT22;60945;48.516;-2.768;2023-02-28T09:06:36;13.20;37.80
72814;DHT22;60945;48.516;-2.768;2023-02-28T09:09:02;13.20;37.80
72814;DHT22;60945;48.516;-2.768;2023-02-28T09:11:29;13.60;37.10
72814;DHT22;60945;48.516;-2.768;2023-02-28T09:13:55;13.80;36.80
72814;DHT22;60945;48.516;-2.768;2023-02-28T09:16:21;13.60;37.00
72814;DHT22;60945;48.516;-2.768;2023-02-28T09:18:47;12.90;38.80
72814;DHT22;60945;48.516;-2.768;2023-02-28T09:21:17;12.80;39.10
72814;DHT22;60945;48.516;-2.768;2023-02-28T09:23:45;12.40;39.60
72814;DHT22;60945;48.516;-2.768;2023-02-28T09:26:19;12.50;40.20
72814;DHT22;60945;48.516;-2.768;2023-02-28T09:28:45;12.00;41.10
72814;DHT22;60945;48.516;-2.768;2023-02-28T09:31:16;11.40;42.80
72814;DHT22;60945;48.516;-2.768;2023-02-28T09:33:42;11.60;42.30
72814;DHT22;60945;48.516;-2.768;2023-02-28T09:36:08;11.20;42.70
72814;DHT22;60945;48.516;-2.768;2023-02-28T09:38:33;10.80;43.30
72814;DHT22;60945;48.516;-2.768;2023-02-28T09:41:10;10.70;44.10
72814;DHT22;60945;48.516;-2.768;2023-02-28T09:43:40;10.40;44.20
72814;DHT22;60945;48.516;-2.768;2023-02-28T09:48:51;10.30;45.40
72814;DHT22;60945;48.516;-2.768;2023-02-28T09:54:13;11.50;43.50
72814;DHT22;60945;48.516;-2.768;2023-02-28T09:56:42;12.70;41.00
72814;DHT22;60945;48.516;-2.768;2023-02-28T10:01:43;11.50;42.60
72814;DHT22;60945;48.516;-2.768;2023-02-28T10:06:55;10.90;44.30
72814;DHT22;60945;48.516;-2.768;2023-02-28T10:09:25;10.80;44.20
72814;DHT22;60945;48.516;-2.768;2023-02-28T10:11:53;10.90;44.40
72814;DHT22;60945;48.516;-2.768;2023-02-28T10:14:26;10.70;44.90
72814;DHT22;60945;48.516;-2.768;2023-02-28T10:16:55;11.20;44.20
72814;DHT22;60945;48.516;-2.768;2023-02-28T10:22:22;11.20;43.30
72814;DHT22;60945;48.516;-2.768;2023-02-28T10:24:54;11.40;43.70
72814;DHT22;60945;48.516;-2.768;2023-02-28T10:27:22;11.50;42.90
72814;DHT22;60945;48.516;-2.768;2023-02-28T10:29:53;11.30;43.70
72814;DHT22;60945;48.516;-2.768;2023-02-28T10:32:39;10.50;45.40
72814;DHT22;60945;48.516;-2.768;2023-02-28T10:35:21;10.50;45.60
72814;DHT22;60945;48.516;-2.768;2023-02-28T10:37:50;10.70;45.50
72814;DHT22;60945;48.516;-2.768;2023-02-28T10:45:23;10.20;45.80
72814;DHT22;60945;48.516;-2.768;2023-02-28T10:47:51;10.00;46.90
72814;DHT22;60945;48.516;-2.768;2023-02-28T11:01:55;9.90;48.30
72814;DHT22;60945;48.516;-2.768;2023-02-28T11:04:01;10.20;47.50
72814;DHT22;60945;48.516;-2.768;2023-02-28T11:06:33;10.50;47.30
72814;DHT22;60945;48.516;-2.768;2023-02-28T11:09:03;10.80;46.10
72814;DHT22;60945;48.516;-2.768;2023-02-28T11:11:31;10.80;45.90
72814;DHT22;60945;48.516;-2.768;2023-02-28T11:14:22;10.50;46.30
72814;DHT22;60945;48.516;-2.768;2023-02-28T11:16:49;10.10;47.40
72814;DHT22;60945;48.516;-2.768;2023-02-28T11:19:49;9.90;48.00
72814;DHT22;60945;48.516;-2.768;2023-02-28T11:22:22;9.50;48.70
72814;DHT22;60945;48.516;-2.768;2023-02-28T11:24:51;9.40;49.00
72814;DHT22;60945;48.516;-2.768;2023-02-28T11:30:00;9.60;49.00
72814;DHT22;60945;48.516;-2.768;2023-02-28T11:32:28;9.70;47.80
72814;DHT22;60945;48.516;-2.768;2023-02-28T11:35:31;9.70;47.90
72814;DHT22;60945;48.516;-2.768;2023-02-28T11:38:00;10.10;47.50
72814;DHT22;60945;48.516;-2.768;2023-02-28T11:40:43;10.60;45.90
72814;DHT22;60945;48.516;-2.768;2023-02-28T11:51:56;11.50;44.10
72814;DHT22;60945;48.516;-2.768;2023-02-28T12:00:37;10.10;46.70
72814;DHT22;60945;48.516;-2.768;2023-02-28T12:08:44;10.10;47.60
72814;DHT22;60945;48.516;-2.768;2023-02-28T12:14:28;11.10;46.00
72814;DHT22;60945;48.516;-2.768;2023-02-28T12:20:32;12.30;43.70
72814;DHT22;60945;48.516;-2.768;2023-02-28T12:26:09;12.40;42.70
72814;DHT22;60945;48.516;-2.768;2023-02-28T12:28:44;12.00;44.00
72814;DHT22;60945;48.516;-2.768;2023-02-28T12:31:25;11.90;44.60
72814;DHT22;60945;48.516;-2.768;2023-02-28T12:33:55;12.30;44.30
72814;DHT22;60945;48.516;-2.768;2023-02-28T12:36:22;12.10;44.80
72814;DHT22;60945;48.516;-2.768;2023-02-28T12:41:22;11.80;45.20
72814;DHT22;60945;48.516;-2.768;2023-02-28T12:43:58;11.70;45.50
72814;DHT22;60945;48.516;-2.768;2023-02-28T12:46:32;12.40;44.30
72814;DHT22;60945;48.516;-2.768;2023-02-28T12:49:05;12.10;44.70
72814;DHT22;60945;48.516;-2.768;2023-02-28T12:51:32;12.10;45.40
72814;DHT22;60945;48.516;-2.768;2023-02-28T12:54:25;11.90;45.70
72814;DHT22;60945;48.516;-2.768;2023-02-28T12:57:27;12.10;45.80
72814;DHT22;60945;48.516;-2.768;2023-02-28T13:00:02;11.70;47.30
72814;DHT22;60945;48.516;-2.768;2023-02-28T13:10:09;11.80;47.70
72814;DHT22;60945;48.516;-2.768;2023-02-28T13:12:35;12.30;46.90
72814;DHT22;60945;48.516;-2.768;2023-02-28T13:15:08;13.00;45.40
72814;DHT22;60945;48.516;-2.768;2023-02-28T13:17:40;13.30;43.80
72814;DHT22;60945;48.516;-2.768;2023-02-28T13:20:37;12.70;45.30
72814;DHT22;60945;48.516;-2.768;2023-02-28T13:23:02;12.60;45.70
72814;DHT22;60945;48.516;-2.768;2023-02-28T13:28:08;12.20;47.10
72814;DHT22;60945;48.516;-2.768;2023-02-28T13:36:23;12.40;46.90
72814;DHT22;60945;48.516;-2.768;2023-02-28T13:39:44;13.00;45.60
72814;DHT22;60945;48.516;-2.768;2023-02-28T13:50:29;11.00;50.10
72814;DHT22;60945;48.516;-2.768;2023-02-28T13:55:37;10.20;53.50
72814;DHT22;60945;48.516;-2.768;2023-02-28T14:01:14;10.60;54.50
72814;DHT22;60945;48.516;-2.768;2023-02-28T14:06:26;10.40;55.50
72814;DHT22;60945;48.516;-2.768;2023-02-28T14:09:02;10.40;55.80
72814;DHT22;60945;48.516;-2.768;2023-02-28T14:11:32;11.20;53.20
72814;DHT22;60945;48.516;-2.768;2023-02-28T14:13:59;13.10;48.60
72814;DHT22;60945;48.516;-2.768;2023-02-28T14:16:46;14.30;45.10
72814;DHT22;60945;48.516;-2.768;2023-02-28T14:19:32;14.60;44.30
72814;DHT22;60945;48.516;-2.768;2023-02-28T14:27:47;12.50;48.50
72814;DHT22;60945;48.516;-2.768;2023-02-28T14:36:16;11.40;51.80
72814;DHT22;60945;48.516;-2.768;2023-02-28T14:39:07;11.30;52.50
72814;DHT22;60945;48.516;-2.768;2023-02-28T14:41:35;11.10;53.10
72814;DHT22;60945;48.516;-2.768;2023-02-28T14:46:40;10.40;55.20
72814;DHT22;60945;48.516;-2.768;2023-02-28T14:49:34;10.40;55.20
72814;DHT22;60945;48.516;-2.768;2023-02-28T14:52:12;10.50;55.00
72814;DHT22;60945;48.516;-2.768;2023-02-28T14:54:40;10.20;56.10
72814;DHT22;60945;48.516;-2.768;2023-02-28T14:57:06;10.20;56.70
72814;DHT22;60945;48.516;-2.768;2023-02-28T14:59:34;9.90;57.80
72814;DHT22;60945;48.516;-2.768;2023-02-28T15:02:18;10.50;56.90
72814;DHT22;60945;48.516;-2.768;2023-02-28T15:04:52;10.60;55.80
72814;DHT22;60945;48.516;-2.768;2023-02-28T15:07:18;10.40;56.50
72814;DHT22;60945;48.516;-2.768;2023-02-28T15:09:44;10.70;55.70
72814;DHT22;60945;48.516;-2.768;2023-02-28T15:12:14;10.40;57.00
72814;DHT22;60945;48.516;-2.768;2023-02-28T15:14:43;11.20;56.20
72814;DHT22;60945;48.516;-2.768;2023-02-28T15:17:21;12.10;53.50
72814;DHT22;60945;48.516;-2.768;2023-02-28T15:19:51;11.60;54.20
72814;DHT22;60945;48.516;-2.768;2023-02-28T15:22:24;11.50;54.80
72814;DHT22;60945;48.516;-2.768;2023-02-28T15:24:54;11.00;56.10
72814;DHT22;60945;48.516;-2.768;2023-02-28T15:27:27;10.60;58.70
72814;DHT22;60945;48.516;-2.768;2023-02-28T15:29:59;10.50;59.40
72814;DHT22;60945;48.516;-2.768;2023-02-28T15:32:37;10.40;58.60
72814;DHT22;60945;48.516;-2.768;2023-02-28T15:35:37;9.90;60.50
72814;DHT22;60945;48.516;-2.768;2023-02-28T15:38:04;10.20;60.10
72814;DHT22;60945;48.516;-2.768;2023-02-28T15:40:41;9.80;60.90
72814;DHT22;60945;48.516;-2.768;2023-02-28T15:43:18;9.50;62.00
72814;DHT22;60945;48.516;-2.768;2023-02-28T15:46:08;9.50;62.10
72814;DHT22;60945;48.516;-2.768;2023-02-28T15:48:52;9.80;62.10
72814;DHT22;60945;48.516;-2.768;2023-02-28T15:51:21;9.50;63.50
72814;DHT22;60945;48.516;-2.768;2023-02-28T15:53:52;9.50;63.30
72814;DHT22;60945;48.516;-2.768;2023-02-28T15:58:59;9.30;60.70
72814;DHT22;60945;48.516;-2.768;2023-02-28T16:01:31;9.20;61.00
72814;DHT22;60945;48.516;-2.768;2023-02-28T16:04:04;9.20;61.00
72814;DHT22;60945;48.516;-2.768;2023-02-28T16:06:37;9.30;60.80
72814;DHT22;60945;48.516;-2.768;2023-02-28T16:09:05;9.20;60.80
72814;DHT22;60945;48.516;-2.768;2023-02-28T16:11:35;9.40;60.10
72814;DHT22;60945;48.516;-2.768;2023-02-28T16:14:05;9.30;60.20
72814;DHT22;60945;48.516;-2.768;2023-02-28T16:16:31;9.30;60.20
72814;DHT22;60945;48.516;-2.768;2023-02-28T16:18:57;9.20;60.10
72814;DHT22;60945;48.516;-2.768;2023-02-28T16:21:24;9.40;59.30
72814;DHT22;60945;48.516;-2.768;2023-02-28T16:23:50;9.10;60.30
72814;DHT22;60945;48.516;-2.768;2023-02-28T16:26:22;9.20;60.20
72814;DHT22;60945;48.516;-2.768;2023-02-28T16:28:49;9.30;59.60
72814;DHT22;60945;48.516;-2.768;2023-02-28T16:31:15;9.20;59.70
72814;DHT22;60945;48.516;-2.768;2023-02-28T16:33:43;9.10;60.10
72814;DHT22;60945;48.516;-2.768;2023-02-28T16:36:31;9.10;60.00
72814;DHT22;60945;48.516;-2.768;2023-02-28T16:38:56;9.10;58.80
72814;DHT22;60945;48.516;-2.768;2023-02-28T16:41:25;8.90;59.80
72814;DHT22;60945;48.516;-2.768;2023-02-28T16:43:54;9.10;60.10
72814;DHT22;60945;48.516;-2.768;2023-02-28T16:46:34;9.10;60.30
72814;DHT22;60945;48.516;-2.768;2023-02-28T16:49:00;9.10;60.10
72814;DHT22;60945;48.516;-2.768;2023-02-28T16:51:26;9.00;60.10
72814;DHT22;60945;48.516;-2.768;2023-02-28T16:53:51;8.80;61.30
72814;DHT22;60945;48.516;-2.768;2023-02-28T16:56:23;8.90;61.60
72814;DHT22;60945;48.516;-2.768;2023-02-28T16:58:49;8.90;62.10
72814;DHT22;60945;48.516;-2.768;2023-02-28T17:01:16;8.90;61.80
72814;DHT22;60945;48.516;-2.768;2023-02-28T17:03:48;9.10;61.70
72814;DHT22;60945;48.516;-2.768;2023-02-28T17:06:24;9.20;61.80
72814;DHT22;60945;48.516;-2.768;2023-02-28T17:08:52;9.30;60.30
72814;DHT22;60945;48.516;-2.768;2023-02-28T17:11:18;9.30;60.30
72814;DHT22;60945;48.516;-2.768;2023-02-28T17:13:44;9.40;60.60
72814;DHT22;60945;48.516;-2.768;2023-02-28T17:16:27;9.20;59.90
72814;DHT22;60945;48.516;-2.768;2023-02-28T17:18:56;9.00;60.80
72814;DHT22;60945;48.516;-2.768;2023-02-28T17:21:22;8.70;62.80
72814;DHT22;60945;48.516;-2.768;2023-02-28T17:23:48;8.50;66.90
72814;DHT22;60945;48.516;-2.768;2023-02-28T17:26:20;8.50;67.50
72814;DHT22;60945;48.516;-2.768;2023-02-28T17:28:49;8.40;68.50
72814;DHT22;60945;48.516;-2.768;2023-02-28T17:31:16;8.40;68.20
72814;DHT22;60945;48.516;-2.768;2023-02-28T17:33:42;8.60;67.50
72814;DHT22;60945;48.516;-2.768;2023-02-28T17:36:16;8.70;67.50
72814;DHT22;60945;48.516;-2.768;2023-02-28T17:38:43;8.70;66.60
72814;DHT22;60945;48.516;-2.768;2023-02-28T17:41:13;8.50;67.00
72814;DHT22;60945;48.516;-2.768;2023-02-28T17:43:39;8.60;67.00
72814;DHT22;60945;48.516;-2.768;2023-02-28T17:46:06;8.40;66.50
72814;DHT22;60945;48.516;-2.768;2023-02-28T17:48:33;8.40;65.60
72814;DHT22;60945;48.516;-2.768;2023-02-28T17:50:59;8.30;65.70
72814;DHT22;60945;48.516;-2.768;2023-02-28T17:53:27;8.30;66.50
72814;DHT22;60945;48.516;-2.768;2023-02-28T17:55:53;8.40;64.70
72814;DHT22;60945;48.516;-2.768;2023-02-28T17:58:18;8.40;64.20
72814;DHT22;60945;48.516;-2.768;2023-02-28T18:00:45;8.60;63.60
72814;DHT22;60945;48.516;-2.768;2023-02-28T18:03:12;8.60;64.30
72814;DHT22;60945;48.516;-2.768;2023-02-28T18:05:38;8.40;64.60
72814;DHT22;60945;48.516;-2.768;2023-02-28T18:08:04;8.60;65.30
72814;DHT22;60945;48.516;-2.768;2023-02-28T18:10:30;8.50;67.60